地図

経路データ

SID SEASON NUMBER BASIN SUBBASIN NAME ISO_TIME NATURE LAT LON WMO_WIND WMO_PRES WMO_AGENCY TRACK_TYPE DIST2LAND LANDFALL IFLAG USA_AGENCY USA_ATCF_ID USA_LAT USA_LON USA_RECORD USA_STATUS USA_WIND USA_PRES USA_SSHS USA_R34_NE USA_R34_SE USA_R34_SW USA_R34_NW USA_R50_NE USA_R50_SE USA_R50_SW USA_R50_NW USA_R64_NE USA_R64_SE USA_R64_SW USA_R64_NW USA_POCI USA_ROCI USA_RMW USA_EYE TOKYO_LAT TOKYO_LON TOKYO_GRADE TOKYO_WIND TOKYO_PRES TOKYO_R50_DIR TOKYO_R50_LONG TOKYO_R50_SHORT TOKYO_R30_DIR TOKYO_R30_LONG TOKYO_R30_SHORT TOKYO_LAND CMA_LAT CMA_LON CMA_CAT CMA_WIND CMA_PRES HKO_LAT HKO_LON HKO_CAT HKO_WIND HKO_PRES NEWDELHI_LAT NEWDELHI_LON NEWDELHI_GRADE NEWDELHI_WIND NEWDELHI_PRES NEWDELHI_CI NEWDELHI_DP NEWDELHI_POCI REUNION_LAT REUNION_LON REUNION_TYPE REUNION_WIND REUNION_PRES REUNION_TNUM REUNION_CI REUNION_RMW REUNION_R34_NE REUNION_R34_SE REUNION_R34_SW REUNION_R34_NW REUNION_R50_NE REUNION_R50_SE REUNION_R50_SW REUNION_R50_NW REUNION_R64_NE REUNION_R64_SE REUNION_R64_SW REUNION_R64_NW BOM_LAT BOM_LON BOM_TYPE BOM_WIND BOM_PRES BOM_TNUM BOM_CI BOM_RMW BOM_R34_NE BOM_R34_SE BOM_R34_SW BOM_R34_NW BOM_R50_NE BOM_R50_SE BOM_R50_SW BOM_R50_NW BOM_R64_NE BOM_R64_SE BOM_R64_SW BOM_R64_NW BOM_ROCI BOM_POCI BOM_EYE BOM_POS_METHOD BOM_PRES_METHOD NADI_LAT NADI_LON NADI_CAT NADI_WIND NADI_PRES WELLINGTON_LAT WELLINGTON_LON WELLINGTON_WIND WELLINGTON_PRES DS824_LAT DS824_LON DS824_STAGE DS824_WIND DS824_PRES TD9636_LAT TD9636_LON TD9636_STAGE TD9636_WIND TD9636_PRES TD9635_LAT TD9635_LON TD9635_WIND TD9635_PRES TD9635_ROCI NEUMANN_LAT NEUMANN_LON NEUMANN_CLASS NEUMANN_WIND NEUMANN_PRES MLC_LAT MLC_LON MLC_CLASS MLC_WIND MLC_PRES USA_GUST BOM_GUST BOM_GUST_PER REUNION_GUST REUNION_GUST_PER USA_SEAHGT USA_SEARAD_NE USA_SEARAD_SE USA_SEARAD_SW USA_SEARAD_NW STORM_SPEED STORM_DIR
1934365S16066 1935 90 SI MM NOT_NAMED 1934-12-30 12:00:00 NR -15.7000 66.4000 main 1043 974 __________O___ -1 -15.7000 66.4000 1 16 209
1934365S16066 1935 90 SI MM NOT_NAMED 1934-12-30 15:00:00 NR -16.3758 66.0076 main 969 910 __________P___ -1 -16.3758 66.0076 1 15 209
1934365S16066 1935 90 SI MM NOT_NAMED 1934-12-30 18:00:00 NR -17.0210 65.6309 main 900 844 __________P___ -1 -17.0210 65.6309 1 14 209
1934365S16066 1935 90 SI MM NOT_NAMED 1934-12-30 21:00:00 NR -17.6056 65.2886 main 844 795 __________P___ -1 -17.6056 65.2886 1 12 209
1934365S16066 1935 90 SI MM NOT_NAMED 1934-12-31 00:00:00 TS -18.1000 65.0000 main 795 764 _________OO___ -1 -18.1000 65.0000 TC 25 -18.1000 65.0000 1 10 210
1934365S16066 1935 90 SI MM NOT_NAMED 1934-12-31 03:00:00 TS -18.4557 64.7807 main 761 734 _________PP___ -1 -18.3926 64.7877 TC 25 -18.4873 64.7773 1 8 210
1934365S16066 1935 90 SI MM NOT_NAMED 1934-12-31 06:00:00 TS -18.7582 64.6018 main 731 716 _________OP___ -1 -18.7000 64.6000 TC 25 -18.8019 64.6031 1 7 207
1934365S16066 1935 90 SI MM NOT_NAMED 1934-12-31 09:00:00 TS -19.0628 64.4512 main 714 687 _________PP___ -1 -19.0350 64.4498 TC 25 -19.0906 64.4525 1 7 204
1934365S16066 1935 90 SI MM NOT_NAMED 1934-12-31 12:00:00 TS -19.4000 64.3000 main 687 660 _________OO___ -1 -19.4000 64.3000 TC 25 -19.4000 64.3000 1 8 205
1934365S16066 1935 90 SI MM NOT_NAMED 1934-12-31 15:00:00 TS -19.7805 64.0992 main 660 636 _________PP___ -1 -19.7850 64.1074 TC 25 -19.7761 64.0910 1 9 206
1934365S16066 1935 90 SI MM NOT_NAMED 1934-12-31 18:00:00 TS -20.1913 63.8888 main 636 615 _________OP___ -1 -20.2000 63.9000 TC 25 -20.1827 63.8777 1 9 205
1934365S16066 1935 90 SI MM NOT_NAMED 1934-12-31 21:00:00 TS -20.6252 63.6839 main 615 598 _________PP___ -1 -20.6275 63.6924 TC 25 -20.6230 63.6754 1 10 202
1934365S16066 1935 90 SI MM NOT_NAMED 1935-01-01 00:00:00 TS -21.1000 63.5000 main 599 589 _________OO___ -1 -21.1000 63.5000 TC 25 -21.1000 63.5000 1 10 199
1934365S16066 1935 90 SI MM NOT_NAMED 1935-01-01 03:00:00 TS -21.6144 63.3294 main 589 587 _________PP___ -1 -21.6350 63.3275 TC 25 -21.5937 63.3313 1 11 195
1934365S16066 1935 90 SI MM NOT_NAMED 1935-01-01 06:00:00 TS -22.1625 63.1982 main 598 596 _________OP___ -1 -22.2000 63.2000 TC 25 -22.1250 63.1963 1 11 190
1934365S16066 1935 90 SI MM NOT_NAMED 1935-01-01 09:00:00 TS -22.7106 63.1128 main 609 609 _________PP___ -1 -22.7275 63.1126 TC 25 -22.6937 63.1131 1 11 185
1934365S16066 1935 90 SI MM NOT_NAMED 1935-01-01 12:00:00 TS -23.3000 63.1000 main 638 638 _________OO___ -1 -23.3000 63.1000 TC 25 -23.3000 63.1000 1 13 177
1934365S16066 1935 90 SI MM NOT_NAMED 1935-01-01 15:00:00 TS -23.9636 63.1659 main 687 687 _________PP___ -1 -23.9850 63.1625 TC 25 -23.9423 63.1694 1 14 172
1934365S16066 1935 90 SI MM NOT_NAMED 1935-01-01 18:00:00 TS -24.6564 63.3034 main 741 741 _________OP___ -1 -24.7000 63.3000 TC 25 -24.6128 63.3069 1 14 168
1934365S16066 1935 90 SI MM NOT_NAMED 1935-01-01 21:00:00 TS -25.3347 63.4891 main 800 800 _________PP___ -1 -25.3676 63.4871 TC 25 -25.3019 63.4910 1 14 165
1934365S16066 1935 90 SI MM NOT_NAMED 1935-01-02 00:00:00 TS -26.0000 63.7000 main 867 _________OO___ -1 -26.0000 63.7000 TC 25 -26.0000 63.7000 1 14 164

IBTrACS Databaseについて

本データベースは、米国NOAAが公開する1842年以降の世界の熱帯低気圧のベストトラックデータアーカイブInternational Best Track Archive for Climate Stewardship (IBTrACS)を、ウェブで閲覧しやすい形式に変換したものです。

最終更新日:2021-10-08